createdAt,value
2023-04-14T00:02:01.898Z,8.89
2023-04-14T00:04:34.867Z,8.83
2023-04-14T00:07:07.368Z,8.80
2023-04-14T00:09:42.445Z,8.76
2023-04-14T00:12:14.973Z,8.72
2023-04-14T00:14:47.495Z,8.72
2023-04-14T00:17:20.007Z,8.70
2023-04-14T00:19:52.865Z,8.72
2023-04-14T00:22:25.865Z,8.68
2023-04-14T00:24:58.740Z,8.65
2023-04-14T00:27:31.479Z,8.64
2023-04-14T00:30:04.323Z,8.59
2023-04-14T00:32:38.702Z,8.56
2023-04-14T00:35:12.478Z,8.52
2023-04-14T00:37:45.005Z,8.56
2023-04-14T00:40:17.873Z,8.57
2023-04-14T00:42:50.984Z,8.53
2023-04-14T00:45:25.813Z,8.50
2023-04-14T00:48:00.095Z,8.53
2023-04-14T00:50:34.752Z,8.51
2023-04-14T00:53:07.233Z,8.51
2023-04-14T00:55:41.048Z,8.50
2023-04-14T00:58:15.062Z,8.46
2023-04-14T01:00:54.107Z,8.49
2023-04-14T01:03:48.970Z,8.45
2023-04-14T01:46:14.228Z,8.23
2023-04-14T01:48:49.694Z,8.22
2023-04-14T01:51:24.116Z,8.23
2023-04-14T01:53:58.538Z,8.25
2023-04-14T01:56:32.308Z,8.27
2023-04-14T01:59:05.997Z,8.28
2023-04-14T02:01:37.953Z,8.28
2023-04-14T02:04:13.831Z,8.24
2023-04-14T02:06:47.390Z,8.28
2023-04-14T02:09:20.951Z,8.29
2023-04-14T02:11:53.842Z,8.28
2023-04-14T02:14:29.429Z,8.17
2023-04-14T02:17:03.352Z,8.13
2023-04-14T02:19:37.412Z,8.07
2023-04-14T02:22:10.536Z,8.04
2023-04-14T02:24:43.234Z,7.99
2023-04-14T02:27:19.170Z,7.91
2023-04-14T02:29:56.623Z,7.85
2023-04-14T02:32:31.825Z,7.82
2023-04-14T02:35:09.890Z,7.79
2023-04-14T02:37:46.538Z,7.76
2023-04-14T02:40:23.039Z,7.62
2023-04-14T02:43:06.286Z,7.48
2023-04-14T02:45:41.383Z,7.38
2023-04-14T02:48:18.005Z,7.32
2023-04-14T02:50:55.118Z,7.16
2023-04-14T02:53:31.542Z,6.89
2023-04-14T02:56:19.586Z,6.76
2023-04-14T02:58:53.172Z,6.65
2023-04-14T03:01:26.935Z,6.68
2023-04-14T03:04:02.108Z,6.68
2023-04-14T03:06:37.176Z,6.65
2023-04-14T03:09:11.166Z,6.70
2023-04-14T03:11:46.156Z,6.74
2023-04-14T03:14:19.830Z,6.81
2023-04-14T03:16:53.598Z,6.83
2023-04-14T03:19:28.689Z,6.82
2023-04-14T03:22:04.120Z,6.93
2023-04-14T03:24:39.343Z,6.96
2023-04-14T03:27:17.154Z,7.00
2023-04-14T03:29:54.432Z,7.05
2023-04-14T03:32:31.322Z,7.10
2023-04-14T03:35:07.640Z,7.15
2023-04-14T03:37:43.500Z,7.22
2023-04-14T03:40:21.740Z,7.27
2023-04-14T03:42:55.282Z,7.30
2023-04-14T03:45:29.933Z,7.35
2023-04-14T03:48:06.295Z,7.40
2023-04-14T03:50:45.809Z,7.43
2023-04-14T03:53:20.383Z,7.42
2023-04-14T03:55:57.693Z,7.43
2023-04-14T03:58:36.237Z,7.44
2023-04-14T04:01:10.403Z,7.45
2023-04-14T04:03:44.179Z,7.45
2023-04-14T04:06:17.139Z,7.46
2023-04-14T04:08:51.735Z,7.46
2023-04-14T04:11:26.332Z,7.46
2023-04-14T04:14:02.465Z,7.48
2023-04-14T04:16:40.148Z,7.52
2023-04-14T04:19:15.825Z,7.55
2023-04-14T04:21:54.654Z,7.55
2023-04-14T04:24:32.864Z,7.50
2023-04-14T04:27:08.145Z,7.51
2023-04-14T04:29:49.515Z,7.50
2023-04-14T04:32:22.735Z,7.49
2023-04-14T04:34:57.151Z,7.49
2023-04-14T04:37:30.482Z,7.48
2023-04-14T04:40:04.277Z,7.52
2023-04-14T04:42:44.493Z,7.54
2023-04-14T04:45:36.875Z,7.54
2023-04-14T04:48:13.990Z,7.55
2023-04-14T04:50:48.515Z,7.55
2023-04-14T04:53:21.099Z,7.57
2023-04-14T04:55:54.061Z,7.59
2023-04-14T04:58:26.774Z,7.61
2023-04-14T05:00:59.313Z,7.63
2023-04-14T05:03:31.958Z,7.64
2023-04-14T05:06:04.912Z,7.66
2023-04-14T05:08:37.947Z,7.68
2023-04-14T05:11:11.019Z,7.68
2023-04-14T05:13:43.995Z,7.73
2023-04-14T05:16:18.983Z,7.77
2023-04-14T05:18:51.584Z,7.79
2023-04-14T05:21:33.383Z,7.85
2023-04-14T05:24:06.872Z,7.91
2023-04-14T05:29:15.379Z,8.02
2023-04-14T05:31:48.238Z,8.10
2023-04-14T05:34:21.567Z,8.08
2023-04-14T05:36:56.932Z,8.12
2023-04-14T05:39:29.765Z,8.18
2023-04-14T05:42:05.355Z,8.13
2023-04-14T05:44:38.130Z,8.22
2023-04-14T05:47:11.716Z,8.29
2023-04-14T05:49:42.408Z,8.35
2023-04-14T05:52:14.938Z,8.40
2023-04-14T05:54:47.872Z,8.49
2023-04-14T05:57:21.748Z,8.57
2023-04-14T05:59:55.876Z,8.66
2023-04-14T06:02:29.916Z,8.70
2023-04-14T06:05:07.765Z,8.75
2023-04-14T06:07:42.587Z,8.86
2023-04-14T06:10:16.730Z,8.93
2023-04-14T06:12:49.625Z,9.02
2023-04-14T06:15:22.410Z,8.97
2023-04-14T06:17:55.378Z,8.95
2023-04-14T06:20:29.573Z,8.97
2023-04-14T06:23:03.508Z,8.98
2023-04-14T06:25:36.726Z,8.91
2023-04-14T06:28:09.361Z,8.89
2023-04-14T06:30:41.846Z,8.91
2023-04-14T06:33:15.271Z,8.98
2023-04-14T06:35:47.808Z,9.04
2023-04-14T06:38:21.017Z,9.05
2023-04-14T06:40:53.849Z,8.98
2023-04-14T06:43:29.194Z,9.02
2023-04-14T06:46:01.784Z,9.13
2023-04-14T06:48:34.862Z,9.23
2023-04-14T06:51:10.883Z,9.22
2023-04-14T06:53:46.155Z,9.31
2023-04-14T06:56:20.514Z,9.42
2023-04-14T06:58:53.048Z,9.69
2023-04-14T07:01:27.433Z,9.78
2023-04-14T07:04:00.700Z,10.00
2023-04-14T07:06:33.638Z,10.31
2023-04-14T07:09:06.739Z,10.45
2023-04-14T07:11:40.734Z,10.78
2023-04-14T07:14:16.174Z,11.13
2023-04-14T07:16:49.128Z,11.35
2023-04-14T07:19:22.230Z,11.29
2023-04-14T07:21:55.000Z,11.31
2023-04-14T07:24:27.432Z,11.68
2023-04-14T07:27:00.944Z,11.71
2023-04-14T07:29:32.914Z,11.82
2023-04-14T07:32:06.432Z,11.65
2023-04-14T07:34:40.050Z,11.82
2023-04-14T07:37:10.853Z,11.97
2023-04-14T07:39:43.640Z,12.04
2023-04-14T07:42:19.010Z,12.25
2023-04-14T07:44:53.131Z,12.26
2023-04-14T07:47:26.551Z,12.19
2023-04-14T07:49:57.511Z,12.28
2023-04-14T07:52:30.264Z,12.29
2023-04-14T07:55:03.452Z,12.20
2023-04-14T07:57:37.555Z,12.46
2023-04-14T08:00:12.045Z,12.54
2023-04-14T08:02:47.536Z,12.71
2023-04-14T08:05:20.520Z,12.83
2023-04-14T08:07:57.998Z,13.08
2023-04-14T08:10:33.368Z,13.22
2023-04-14T08:13:06.841Z,13.42
2023-04-14T08:15:37.683Z,13.45
2023-04-14T08:18:10.339Z,13.45
2023-04-14T08:20:48.132Z,13.60
2023-04-14T08:23:21.559Z,13.69
2023-04-14T08:25:54.217Z,13.77
2023-04-14T08:28:27.310Z,14.03
2023-04-14T08:31:00.070Z,14.16
2023-04-14T08:33:34.408Z,14.11
2023-04-14T08:36:07.585Z,14.14
2023-04-14T08:38:40.483Z,14.28
2023-04-14T08:41:17.056Z,14.28
2023-04-14T08:43:50.078Z,14.43
2023-04-14T08:46:25.527Z,14.46
2023-04-14T08:49:05.383Z,14.39
2023-04-14T08:51:41.030Z,14.43
2023-04-14T08:54:14.369Z,14.48
2023-04-14T08:56:47.541Z,14.50
2023-04-14T08:59:21.890Z,14.52
2023-04-14T09:01:57.344Z,14.69
2023-04-14T09:04:31.274Z,14.69
2023-04-14T09:07:05.099Z,14.78
2023-04-14T09:09:40.385Z,14.76
2023-04-14T09:12:13.286Z,14.81
2023-04-14T09:14:51.487Z,14.97
2023-04-14T09:17:24.560Z,14.81
2023-04-14T09:20:34.706Z,14.90
2023-04-14T09:22:50.656Z,14.91
2023-04-14T09:25:24.853Z,14.92
2023-04-14T09:27:57.802Z,15.17
2023-04-14T09:30:30.810Z,15.09
2023-04-14T09:33:05.706Z,15.16
2023-04-14T09:35:50.294Z,15.23
2023-04-14T09:38:37.782Z,15.32
2023-04-14T09:41:11.851Z,15.52
2023-04-14T09:43:44.699Z,15.76
2023-04-14T09:46:18.153Z,15.74
2023-04-14T09:48:58.008Z,15.90
2023-04-14T09:51:35.461Z,15.69
2023-04-14T09:54:08.482Z,15.45
2023-04-14T09:56:47.370Z,15.22
2023-04-14T09:59:31.258Z,15.06
2023-04-14T10:02:07.318Z,15.12
2023-04-14T10:04:41.793Z,15.18
2023-04-14T10:07:20.535Z,15.30
2023-04-14T10:09:53.080Z,15.38
2023-04-14T10:12:27.162Z,15.43
2023-04-14T10:15:00.573Z,15.27
2023-04-14T10:17:33.907Z,15.26
2023-04-14T10:20:08.217Z,15.32
2023-04-14T10:22:43.172Z,15.38
2023-04-14T10:25:18.502Z,15.51
2023-04-14T10:27:52.491Z,15.65
2023-04-14T10:30:25.602Z,15.72
2023-04-14T10:33:00.439Z,15.76
2023-04-14T10:35:44.273Z,15.73
2023-04-14T10:38:14.952Z,15.67
2023-04-14T10:40:57.338Z,15.68
2023-04-14T10:43:33.207Z,15.75
2023-04-14T10:46:07.569Z,15.87
2023-04-14T10:48:42.933Z,15.82
2023-04-14T10:51:18.439Z,15.70
2023-04-14T10:53:57.430Z,15.85
2023-04-14T10:56:30.746Z,15.85
2023-04-14T10:59:04.293Z,15.76
2023-04-14T11:01:40.565Z,15.77
2023-04-14T11:04:23.812Z,15.72
2023-04-14T11:07:00.470Z,15.65
2023-04-14T11:09:39.827Z,15.70
2023-04-14T11:15:14.235Z,15.75
2023-04-14T11:17:47.680Z,15.71
2023-04-14T11:20:22.554Z,15.76
2023-04-14T11:22:59.227Z,15.63
2023-04-14T11:25:32.438Z,15.69
2023-04-14T11:28:06.635Z,15.70
2023-04-14T11:30:42.622Z,15.79
2023-04-14T11:33:22.618Z,15.81
2023-04-14T11:35:55.692Z,15.82
2023-04-14T11:38:29.166Z,15.85
2023-04-14T11:41:03.265Z,16.05
2023-04-14T11:43:36.121Z,16.13
2023-04-14T11:46:10.043Z,16.31
2023-04-14T11:48:42.772Z,16.49
2023-04-14T11:51:16.337Z,16.65
2023-04-14T11:53:49.041Z,16.40
2023-04-14T11:56:23.806Z,16.29
2023-04-14T11:59:03.743Z,16.20
2023-04-14T12:01:36.995Z,16.10
2023-04-14T12:04:10.941Z,16.02
2023-04-14T12:06:44.215Z,15.82
2023-04-14T12:09:19.450Z,15.68
2023-04-14T12:11:59.458Z,15.66
2023-04-14T12:14:32.574Z,15.65
2023-04-14T12:17:05.671Z,15.60
2023-04-14T12:19:38.917Z,15.61
2023-04-14T12:22:12.458Z,15.58
2023-04-14T12:24:45.593Z,15.54
2023-04-14T12:27:22.268Z,15.59
2023-04-14T12:29:55.361Z,15.67
2023-04-14T12:32:31.142Z,15.66
2023-04-14T12:35:04.201Z,15.58
2023-04-14T12:37:38.986Z,15.75
2023-04-14T12:40:16.230Z,15.95
2023-04-14T12:42:54.732Z,16.10
2023-04-14T12:45:42.070Z,16.10
2023-04-14T12:48:18.619Z,16.04
2023-04-14T12:50:52.362Z,15.96
2023-04-14T12:53:29.479Z,15.98
2023-04-14T12:56:12.052Z,15.95
2023-04-14T12:58:47.840Z,16.07
2023-04-14T13:01:22.361Z,16.02
2023-04-14T13:03:56.557Z,15.92
2023-04-14T13:06:29.331Z,15.96
2023-04-14T13:09:02.289Z,15.85
2023-04-14T13:11:35.436Z,15.88
2023-04-14T13:14:07.946Z,15.81
2023-04-14T13:16:41.702Z,15.92
2023-04-14T13:19:14.909Z,15.93
2023-04-14T13:21:47.350Z,16.02
2023-04-14T13:24:20.093Z,16.05
2023-04-14T13:26:52.769Z,15.98
2023-04-14T13:29:25.407Z,16.05
2023-04-14T13:31:58.157Z,16.00
2023-04-14T13:34:30.932Z,15.90
2023-04-14T13:37:04.045Z,15.85
2023-04-14T13:39:36.737Z,15.79
2023-04-14T13:42:09.987Z,15.82
2023-04-14T13:44:42.535Z,15.87
2023-04-14T13:47:15.666Z,15.95
2023-04-14T13:49:49.553Z,16.05
2023-04-14T13:52:22.376Z,16.15
2023-04-14T13:54:55.196Z,16.09
2023-04-14T13:57:29.631Z,16.04
2023-04-14T14:00:02.591Z,15.99
2023-04-14T14:02:40.324Z,15.87
2023-04-14T14:05:13.877Z,15.77
2023-04-14T14:07:47.150Z,15.70
2023-04-14T14:10:20.435Z,15.66
2023-04-14T14:12:53.659Z,15.60
2023-04-14T14:15:26.318Z,15.65
2023-04-14T14:17:59.108Z,15.57
2023-04-14T14:20:34.219Z,15.55
2023-04-14T14:23:07.327Z,15.58
2023-04-14T14:25:41.204Z,15.57
2023-04-14T14:28:14.353Z,15.59
2023-04-14T14:30:46.942Z,15.57
2023-04-14T14:33:19.564Z,15.58
2023-04-14T14:35:52.756Z,15.61
2023-04-14T14:38:25.653Z,15.58
2023-04-14T14:41:02.005Z,15.54
2023-04-14T14:43:34.699Z,15.58
2023-04-14T14:46:07.839Z,15.56
2023-04-14T14:48:38.998Z,15.57
2023-04-14T14:51:11.838Z,15.45
2023-04-14T14:53:44.483Z,15.49
2023-04-14T14:56:17.133Z,15.46
2023-04-14T14:58:50.801Z,15.44
2023-04-14T15:01:23.593Z,15.46
2023-04-14T15:03:57.376Z,15.39
2023-04-14T15:06:30.325Z,15.39
2023-04-14T15:09:03.386Z,15.42
2023-04-14T15:11:36.416Z,15.35
2023-04-14T15:14:13.083Z,15.32
2023-04-14T15:16:47.190Z,15.29
2023-04-14T15:19:19.816Z,15.26
2023-04-14T15:21:53.154Z,15.25
2023-04-14T15:24:27.322Z,15.18
2023-04-14T15:26:59.853Z,15.17
2023-04-14T15:29:33.322Z,15.14
2023-04-14T15:32:06.428Z,15.09
2023-04-14T15:34:41.782Z,15.10
2023-04-14T15:37:14.854Z,15.04
2023-04-14T15:39:50.097Z,15.04
2023-04-14T15:42:22.826Z,14.99
2023-04-14T15:44:55.633Z,15.01
2023-04-14T15:47:28.235Z,14.98
2023-04-14T15:50:09.265Z,14.97
2023-04-14T15:52:44.076Z,14.94
2023-04-14T15:55:16.977Z,14.89
2023-04-14T15:57:50.750Z,14.92
2023-04-14T16:00:27.186Z,14.87
2023-04-14T16:03:02.389Z,14.89
2023-04-14T16:05:35.756Z,14.87
2023-04-14T16:08:08.407Z,14.83
2023-04-14T16:10:45.416Z,14.80
2023-04-14T16:13:18.297Z,14.78
2023-04-14T16:15:51.125Z,14.76
2023-04-14T16:18:23.544Z,14.76
2023-04-14T16:20:56.863Z,14.74
2023-04-14T16:23:31.044Z,14.72
2023-04-14T16:26:03.915Z,14.65
2023-04-14T16:28:41.988Z,14.65
2023-04-14T16:31:15.742Z,14.64
2023-04-14T16:33:48.125Z,14.64
2023-04-14T16:36:22.250Z,14.58
2023-04-14T16:38:54.649Z,14.56
2023-04-14T16:41:27.614Z,14.52
2023-04-14T16:43:58.624Z,14.49
2023-04-14T16:46:34.753Z,14.43
2023-04-14T16:49:08.058Z,14.46
2023-04-14T16:51:39.985Z,14.44
2023-04-14T16:54:12.457Z,14.35
2023-04-14T16:56:45.814Z,14.37
2023-04-14T16:59:18.348Z,14.35
2023-04-14T17:01:51.418Z,14.33
2023-04-14T17:04:24.535Z,14.32
2023-04-14T17:06:58.111Z,14.28
2023-04-14T17:09:30.659Z,14.25
2023-04-14T17:12:03.616Z,14.19
2023-04-14T17:14:37.175Z,14.22
2023-04-14T17:17:10.317Z,14.21
2023-04-14T17:19:43.320Z,14.16
2023-04-14T17:22:16.630Z,14.08
2023-04-14T17:24:50.681Z,14.09
2023-04-14T17:27:24.083Z,14.05
2023-04-14T17:29:56.966Z,14.04
2023-04-14T17:32:30.038Z,14.05
2023-04-14T17:35:04.069Z,13.98
2023-04-14T17:37:37.497Z,13.96
2023-04-14T17:40:11.967Z,13.91
2023-04-14T17:42:45.299Z,13.87
2023-04-14T17:45:23.205Z,13.86
2023-04-14T17:47:57.642Z,13.74
2023-04-14T17:50:31.517Z,13.69
2023-04-14T17:53:04.249Z,13.70
2023-04-14T17:55:38.145Z,13.68
2023-04-14T17:58:11.141Z,13.61
2023-04-14T18:00:44.490Z,13.56
2023-04-14T18:03:17.706Z,13.49
2023-04-14T18:05:50.836Z,13.45
2023-04-14T18:08:24.043Z,13.32
2023-04-14T18:10:56.418Z,13.25
2023-04-14T18:13:29.578Z,13.21
2023-04-14T18:16:03.111Z,13.13
2023-04-14T18:18:34.759Z,13.13
2023-04-14T18:21:08.379Z,12.99
2023-04-14T18:23:41.864Z,12.90
2023-04-14T18:28:57.759Z,12.82
2023-04-14T18:31:28.789Z,12.75
2023-04-14T18:34:06.089Z,12.63
2023-04-14T18:36:39.381Z,12.62
2023-04-14T18:39:13.292Z,12.50
2023-04-14T18:41:45.849Z,12.49
2023-04-14T18:44:21.461Z,12.35
2023-04-14T18:46:54.400Z,12.31
2023-04-14T18:49:30.157Z,12.24
2023-04-14T18:52:02.759Z,12.12
2023-04-14T18:54:36.103Z,12.07
2023-04-14T18:57:08.808Z,11.97
2023-04-14T18:59:41.683Z,11.87
2023-04-14T19:02:17.290Z,11.82
2023-04-14T19:04:50.471Z,11.77
2023-04-14T19:07:23.053Z,11.71
2023-04-14T19:09:55.988Z,11.69
2023-04-14T19:12:29.182Z,11.64
2023-04-14T19:15:03.132Z,11.64
2023-04-14T19:17:38.173Z,11.65
2023-04-14T19:20:13.519Z,11.64
2023-04-14T19:22:46.461Z,11.63
2023-04-14T19:25:20.071Z,11.62
2023-04-14T19:27:52.873Z,11.60
2023-04-14T19:30:27.243Z,11.61
2023-04-14T19:33:00.822Z,11.61
2023-04-14T19:35:34.266Z,11.63
2023-04-14T19:38:08.169Z,11.63
2023-04-14T19:40:44.020Z,11.66
2023-04-14T19:43:18.976Z,11.65
2023-04-14T19:45:57.660Z,11.66
2023-04-14T19:48:33.340Z,11.63
2023-04-14T19:51:06.369Z,11.67
2023-04-14T19:53:39.231Z,11.64
2023-04-14T19:56:13.337Z,11.61
2023-04-14T19:58:46.257Z,11.60
2023-04-14T20:01:19.371Z,11.61
2023-04-14T20:04:04.720Z,11.59
2023-04-14T20:06:46.109Z,11.61
2023-04-14T20:09:18.950Z,11.58
2023-04-14T20:11:53.171Z,11.56
2023-04-14T20:14:25.603Z,11.56
2023-04-14T20:16:58.392Z,11.52
2023-04-14T20:19:31.521Z,11.53
2023-04-14T20:22:04.396Z,11.49
2023-04-14T20:24:37.724Z,11.49
2023-04-14T20:27:11.495Z,11.44
2023-04-14T20:29:44.540Z,11.41
2023-04-14T20:32:17.398Z,11.41
2023-04-14T20:34:50.118Z,11.36
2023-04-14T20:37:25.564Z,11.33
2023-04-14T20:40:00.288Z,11.35
2023-04-14T20:42:33.326Z,11.13
2023-04-14T20:45:11.429Z,11.12
2023-04-14T20:47:48.419Z,11.00
2023-04-14T20:50:21.567Z,10.97
2023-04-14T20:52:54.664Z,10.95
2023-04-14T20:55:27.065Z,10.88
2023-04-14T20:57:59.850Z,10.81
2023-04-14T21:00:34.345Z,10.75
2023-04-14T21:03:07.772Z,10.68
2023-04-14T21:05:38.738Z,10.63
2023-04-14T21:08:12.895Z,10.57
2023-04-14T21:11:15.161Z,10.53
2023-04-14T21:15:31.268Z,10.52
2023-04-14T21:16:31.981Z,10.44
2023-04-14T21:19:05.926Z,10.44
2023-04-14T21:21:39.666Z,10.48
2023-04-14T21:24:13.032Z,10.48
2023-04-14T21:26:45.665Z,10.42
2023-04-14T21:29:18.555Z,10.39
2023-04-14T21:31:51.322Z,10.34
2023-04-14T21:34:27.743Z,10.34
2023-04-14T21:37:00.950Z,10.33
2023-04-14T21:39:35.545Z,10.32
2023-04-14T21:42:08.377Z,10.26
2023-04-14T21:44:41.721Z,10.25
2023-04-14T21:47:17.440Z,10.23
2023-04-14T21:49:50.144Z,10.26
2023-04-14T21:52:25.598Z,10.23
2023-04-14T21:54:59.094Z,10.18
2023-04-14T21:57:48.565Z,10.15
2023-04-14T22:00:22.364Z,10.11
2023-04-14T22:02:55.922Z,10.10
2023-04-14T22:05:30.675Z,10.09
2023-04-14T22:08:03.448Z,10.06
2023-04-14T22:10:43.499Z,10.07
2023-04-14T22:13:19.322Z,10.05
2023-04-14T22:15:52.035Z,10.04
2023-04-14T22:18:25.814Z,10.04
2023-04-14T22:20:59.096Z,10.03
2023-04-14T22:23:32.155Z,10.04
2023-04-14T22:26:05.262Z,10.02
2023-04-14T22:28:37.910Z,9.97
2023-04-14T22:31:11.067Z,9.98
2023-04-14T22:33:44.783Z,9.99
2023-04-14T22:36:15.388Z,9.98
2023-04-14T22:38:48.837Z,9.91
2023-04-14T22:41:21.536Z,9.96
2023-04-14T22:43:54.160Z,9.95
2023-04-14T22:46:28.471Z,9.92
2023-04-14T22:49:01.584Z,9.90
2023-04-14T22:51:35.697Z,9.83
2023-04-14T22:54:08.501Z,9.88
2023-04-14T22:56:42.888Z,9.87
2023-04-14T22:59:17.776Z,9.86
2023-04-14T23:01:51.713Z,9.80
2023-04-14T23:04:25.758Z,9.85
2023-04-14T23:06:58.802Z,9.80
2023-04-14T23:09:31.641Z,9.79
2023-04-14T23:12:07.570Z,9.84
2023-04-14T23:14:41.542Z,9.80
2023-04-14T23:17:14.541Z,9.78
2023-04-14T23:19:47.380Z,9.77
2023-04-14T23:22:21.080Z,9.78
2023-04-14T23:24:53.853Z,9.76
2023-04-14T23:27:26.791Z,9.78
2023-04-14T23:29:59.540Z,9.73
2023-04-14T23:32:32.156Z,9.75
2023-04-14T23:35:05.396Z,9.74
2023-04-14T23:37:38.421Z,9.72
2023-04-14T23:40:14.574Z,9.65
2023-04-14T23:42:47.236Z,9.72
2023-04-14T23:45:20.153Z,9.73
2023-04-14T23:47:54.348Z,9.71
2023-04-14T23:51:00.725Z,9.69
2023-04-14T23:53:20.813Z,9.65
2023-04-14T23:55:57.160Z,9.62
2023-04-14T23:58:30.323Z,9.65
